KBIS

Bismarck Municipal Airport

Bismarck, North Dakota, USA
KBIS 190536Z 1906/2006 VRB03KT P6SM FEW250 FM190800 31006KT P6SM FEW250 FM191100 31011KT P6SM FEW250 FM191700 32020G30KT P6SM SKC
Issued Valid From Valid To
Oct-19 @ 05:36 UTC
(4 hours ago)
Oct-19 @ 06:00 UTC
(4 hours ago)
Oct-20 @ 06:00 UTC
(in 20 hours)
Expired Click to View Oct-19 @ 06:00 to Oct-19 @ 08:00
KBIS 190536Z 1906/2006 VRB03KT P6SM FEW250
Wind Visibility Clouds
Variable at 3 knots Greater than 6 miles
  • Few at 25,000' AGL
From Oct-19 @ 08:00 to Oct-19 @ 11:00
FM190800 31006KT P6SM FEW250
Wind Visibility Clouds
310° at 6 knots Greater than 6 miles
  • Few at 25,000' AGL
From Oct-19 @ 11:00 to Oct-19 @ 17:00
FM191100 31011KT P6SM FEW250
Wind Visibility Clouds
310° at 11 knots Greater than 6 miles
  • Few at 25,000' AGL
From Oct-19 @ 17:00 to Oct-20 @ 06:00
FM191700 32020G30KT P6SM SKC
Wind Visibility Clouds
320° at 20 knots
 Gusting to 30 knots
Greater than 6 miles
  • Clear skies
KBIS 190536Z 1906/2006 VRB03KT P6SM FEW250 FM190800 31006KT P6SM FEW250 FM191100 31011KT P6SM FEW250 FM191700 32020G30KT P6SM SKC
Issued Oct-19 @ 05:36 UTC
(4 hours ago)
Valid From Oct-19 @ 06:00 UTC
(4 hours ago)
Valid To Oct-20 @ 06:00 UTC
(in 20 hours)
Oct-19 @ 06:00 - Oct-19 @ 08:00
Wind Visibility
Variable at 3 knots Greater than 6 miles
Clouds
  • Few at 25,000' AGL
From Oct-19 @ 08:00 - Oct-19 @ 11:00
Wind Visibility
310° at 6 knots Greater than 6 miles
Clouds
  • Few at 25,000' AGL
From Oct-19 @ 11:00 - Oct-19 @ 17:00
Wind Visibility
310° at 11 knots Greater than 6 miles
Clouds
  • Few at 25,000' AGL
From Oct-19 @ 17:00 - Oct-20 @ 06:00
Wind Visibility
320° at 20 knots
 Gusting to 30 knots
Greater than 6 miles
Clouds
  • Clear skies